sensor_id;sensor_type;location;lat;lon;timestamp;temperature;humidity
11511;DHT22;5812;48.864;9.190;2022-10-16T00:00:40;14.50;99.90
11511;DHT22;5812;48.864;9.190;2022-10-16T00:03:06;14.50;99.90
11511;DHT22;5812;48.864;9.190;2022-10-16T00:05:33;14.60;99.90
11511;DHT22;5812;48.864;9.190;2022-10-16T00:08:02;14.50;99.90
11511;DHT22;5812;48.864;9.190;2022-10-16T00:10:28;14.50;99.90
11511;DHT22;5812;48.864;9.190;2022-10-16T00:12:54;14.50;99.90
11511;DHT22;5812;48.864;9.190;2022-10-16T00:15:19;14.40;99.90
11511;DHT22;5812;48.864;9.190;2022-10-16T00:17:45;14.50;99.90
11511;DHT22;5812;48.864;9.190;2022-10-16T00:20:10;14.50;99.90
11511;DHT22;5812;48.864;9.190;2022-10-16T00:22:36;14.50;99.90
11511;DHT22;5812;48.864;9.190;2022-10-16T00:25:02;14.50;99.90
11511;DHT22;5812;48.864;9.190;2022-10-16T00:27:27;14.40;99.90
11511;DHT22;5812;48.864;9.190;2022-10-16T00:29:53;14.30;99.90
11511;DHT22;5812;48.864;9.190;2022-10-16T00:32:19;14.20;99.90
11511;DHT22;5812;48.864;9.190;2022-10-16T00:34:45;14.20;99.90
11511;DHT22;5812;48.864;9.190;2022-10-16T00:37:11;14.10;99.90
11511;DHT22;5812;48.864;9.190;2022-10-16T00:39:37;14.10;99.90
11511;DHT22;5812;48.864;9.190;2022-10-16T00:42:03;14.10;99.90
11511;DHT22;5812;48.864;9.190;2022-10-16T00:47:17;14.00;99.90
11511;DHT22;5812;48.864;9.190;2022-10-16T00:49:44;14.00;99.90
11511;DHT22;5812;48.864;9.190;2022-10-16T00:52:10;14.00;99.90
11511;DHT22;5812;48.864;9.190;2022-10-16T00:54:36;13.90;99.90
11511;DHT22;5812;48.864;9.190;2022-10-16T00:57:05;13.90;99.90
11511;DHT22;5812;48.864;9.190;2022-10-16T00:59:34;13.80;99.90
11511;DHT22;5812;48.864;9.190;2022-10-16T01:02:03;13.90;99.90
11511;DHT22;5812;48.864;9.190;2022-10-16T01:04:36;13.90;99.90
11511;DHT22;5812;48.864;9.190;2022-10-16T01:13:06;14.10;99.90
11511;DHT22;5812;48.864;9.190;2022-10-16T01:16:31;14.40;99.90
11511;DHT22;5812;48.864;9.190;2022-10-16T01:18:43;14.40;99.90
11511;DHT22;5812;48.864;9.190;2022-10-16T01:21:16;14.40;99.90
11511;DHT22;5812;48.864;9.190;2022-10-16T01:24:27;14.40;99.90
11511;DHT22;5812;48.864;9.190;2022-10-16T01:27:15;14.50;99.90
11511;DHT22;5812;48.864;9.190;2022-10-16T01:32:37;14.30;99.90
11511;DHT22;5812;48.864;9.190;2022-10-16T01:35:18;14.50;99.90
11511;DHT22;5812;48.864;9.190;2022-10-16T01:37:59;14.50;99.90
11511;DHT22;5812;48.864;9.190;2022-10-16T01:40:27;14.50;99.90
11511;DHT22;5812;48.864;9.190;2022-10-16T01:43:00;14.40;99.90
11511;DHT22;5812;48.864;9.190;2022-10-16T01:45:30;14.30;99.90
11511;DHT22;5812;48.864;9.190;2022-10-16T01:47:58;14.30;99.90
11511;DHT22;5812;48.864;9.190;2022-10-16T01:50:26;14.30;99.90
11511;DHT22;5812;48.864;9.190;2022-10-16T01:52:54;14.20;99.90
11511;DHT22;5812;48.864;9.190;2022-10-16T01:55:26;14.20;99.90
11511;DHT22;5812;48.864;9.190;2022-10-16T01:57:55;14.30;99.90
11511;DHT22;5812;48.864;9.190;2022-10-16T02:00:22;14.30;99.90
11511;DHT22;5812;48.864;9.190;2022-10-16T02:02:50;14.20;99.90
11511;DHT22;5812;48.864;9.190;2022-10-16T02:06:20;14.40;99.90
11511;DHT22;5812;48.864;9.190;2022-10-16T02:08:14;14.40;99.90
11511;DHT22;5812;48.864;9.190;2022-10-16T02:10:40;14.50;99.90
11511;DHT22;5812;48.864;9.190;2022-10-16T02:13:17;14.70;99.90
11511;DHT22;5812;48.864;9.190;2022-10-16T02:15:44;14.90;99.90
11511;DHT22;5812;48.864;9.190;2022-10-16T02:18:10;15.00;99.90
11511;DHT22;5812;48.864;9.190;2022-10-16T02:20:57;15.10;99.90
11511;DHT22;5812;48.864;9.190;2022-10-16T02:26:03;15.10;99.90
11511;DHT22;5812;48.864;9.190;2022-10-16T02:28:42;15.10;99.90
11511;DHT22;5812;48.864;9.190;2022-10-16T02:31:12;15.20;99.90
11511;DHT22;5812;48.864;9.190;2022-10-16T02:33:41;15.20;99.90
11511;DHT22;5812;48.864;9.190;2022-10-16T02:36:07;15.20;99.90
11511;DHT22;5812;48.864;9.190;2022-10-16T02:38:34;15.20;99.90
11511;DHT22;5812;48.864;9.190;2022-10-16T02:41:00;15.20;99.90
11511;DHT22;5812;48.864;9.190;2022-10-16T02:43:25;15.20;99.90
11511;DHT22;5812;48.864;9.190;2022-10-16T02:45:51;15.10;99.90
11511;DHT22;5812;48.864;9.190;2022-10-16T02:48:17;15.10;99.90
11511;DHT22;5812;48.864;9.190;2022-10-16T02:50:42;14.80;99.90
11511;DHT22;5812;48.864;9.190;2022-10-16T02:53:08;14.80;99.90
11511;DHT22;5812;48.864;9.190;2022-10-16T02:55:34;14.70;99.90
11511;DHT22;5812;48.864;9.190;2022-10-16T02:57:59;14.60;99.90
11511;DHT22;5812;48.864;9.190;2022-10-16T03:00:25;14.60;99.90
11511;DHT22;5812;48.864;9.190;2022-10-16T03:02:50;14.50;99.90
11511;DHT22;5812;48.864;9.190;2022-10-16T03:05:16;14.50;99.90
11511;DHT22;5812;48.864;9.190;2022-10-16T03:07:42;14.50;99.90
11511;DHT22;5812;48.864;9.190;2022-10-16T03:10:08;14.50;99.90
11511;DHT22;5812;48.864;9.190;2022-10-16T03:12:34;14.50;99.90
11511;DHT22;5812;48.864;9.190;2022-10-16T03:14:59;14.50;99.90
11511;DHT22;5812;48.864;9.190;2022-10-16T03:17:25;14.40;99.90
11511;DHT22;5812;48.864;9.190;2022-10-16T03:19:51;14.50;99.90
11511;DHT22;5812;48.864;9.190;2022-10-16T03:22:16;14.40;99.90
11511;DHT22;5812;48.864;9.190;2022-10-16T03:24:42;14.30;99.90
11511;DHT22;5812;48.864;9.190;2022-10-16T03:27:07;14.30;99.90
11511;DHT22;5812;48.864;9.190;2022-10-16T03:29:33;14.30;99.90
11511;DHT22;5812;48.864;9.190;2022-10-16T03:31:59;14.30;99.90
11511;DHT22;5812;48.864;9.190;2022-10-16T03:34:25;14.40;99.90
11511;DHT22;5812;48.864;9.190;2022-10-16T03:36:51;14.60;99.90
11511;DHT22;5812;48.864;9.190;2022-10-16T03:39:17;14.50;99.90
11511;DHT22;5812;48.864;9.190;2022-10-16T03:41:43;14.50;99.90
11511;DHT22;5812;48.864;9.190;2022-10-16T03:44:09;14.50;99.90
11511;DHT22;5812;48.864;9.190;2022-10-16T03:46:34;14.50;99.90
11511;DHT22;5812;48.864;9.190;2022-10-16T03:49:00;14.40;99.90
11511;DHT22;5812;48.864;9.190;2022-10-16T03:51:25;14.40;99.90
11511;DHT22;5812;48.864;9.190;2022-10-16T03:53:51;14.30;99.90
11511;DHT22;5812;48.864;9.190;2022-10-16T03:56:17;14.30;99.90
11511;DHT22;5812;48.864;9.190;2022-10-16T03:58:42;14.40;99.90
11511;DHT22;5812;48.864;9.190;2022-10-16T04:01:08;14.50;99.90
11511;DHT22;5812;48.864;9.190;2022-10-16T04:03:33;14.30;99.90
11511;DHT22;5812;48.864;9.190;2022-10-16T04:05:59;14.50;99.90
11511;DHT22;5812;48.864;9.190;2022-10-16T04:08:24;14.60;99.90
11511;DHT22;5812;48.864;9.190;2022-10-16T04:10:50;14.60;99.90
11511;DHT22;5812;48.864;9.190;2022-10-16T04:13:16;14.70;99.90
11511;DHT22;5812;48.864;9.190;2022-10-16T04:15:41;14.70;99.90
11511;DHT22;5812;48.864;9.190;2022-10-16T04:18:07;14.80;99.90
11511;DHT22;5812;48.864;9.190;2022-10-16T04:20:34;14.70;99.90
11511;DHT22;5812;48.864;9.190;2022-10-16T04:22:59;14.60;99.90
11511;DHT22;5812;48.864;9.190;2022-10-16T04:25:25;14.70;99.90
11511;DHT22;5812;48.864;9.190;2022-10-16T04:27:53;14.80;99.90
11511;DHT22;5812;48.864;9.190;2022-10-16T04:30:19;14.70;99.90
11511;DHT22;5812;48.864;9.190;2022-10-16T04:32:48;14.80;99.90
11511;DHT22;5812;48.864;9.190;2022-10-16T04:35:14;14.80;99.90
11511;DHT22;5812;48.864;9.190;2022-10-16T04:37:40;14.60;99.90
11511;DHT22;5812;48.864;9.190;2022-10-16T04:40:06;14.60;99.90
11511;DHT22;5812;48.864;9.190;2022-10-16T04:42:31;14.70;99.90
11511;DHT22;5812;48.864;9.190;2022-10-16T04:44:57;14.60;99.90
11511;DHT22;5812;48.864;9.190;2022-10-16T04:47:22;14.60;99.90
11511;DHT22;5812;48.864;9.190;2022-10-16T04:49:48;14.60;99.90
11511;DHT22;5812;48.864;9.190;2022-10-16T04:52:13;14.60;99.90
11511;DHT22;5812;48.864;9.190;2022-10-16T04:54:39;14.60;99.90
11511;DHT22;5812;48.864;9.190;2022-10-16T04:57:05;14.70;99.90
11511;DHT22;5812;48.864;9.190;2022-10-16T04:59:30;14.80;99.90
11511;DHT22;5812;48.864;9.190;2022-10-16T05:01:56;14.80;99.90
11511;DHT22;5812;48.864;9.190;2022-10-16T05:04:21;14.90;99.90
11511;DHT22;5812;48.864;9.190;2022-10-16T05:06:47;14.90;99.90
11511;DHT22;5812;48.864;9.190;2022-10-16T05:09:13;14.90;99.90
11511;DHT22;5812;48.864;9.190;2022-10-16T05:11:39;14.80;99.90
11511;DHT22;5812;48.864;9.190;2022-10-16T05:14:04;14.80;99.90
11511;DHT22;5812;48.864;9.190;2022-10-16T05:16:30;14.80;99.90
11511;DHT22;5812;48.864;9.190;2022-10-16T05:18:56;14.70;99.90
11511;DHT22;5812;48.864;9.190;2022-10-16T05:21:22;14.70;99.90
11511;DHT22;5812;48.864;9.190;2022-10-16T05:23:47;14.60;99.90
11511;DHT22;5812;48.864;9.190;2022-10-16T05:26:13;14.50;99.90
11511;DHT22;5812;48.864;9.190;2022-10-16T05:28:39;14.60;99.90
11511;DHT22;5812;48.864;9.190;2022-10-16T05:31:08;14.60;99.90
11511;DHT22;5812;48.864;9.190;2022-10-16T05:33:34;14.50;99.90
11511;DHT22;5812;48.864;9.190;2022-10-16T05:36:05;14.50;99.90
11511;DHT22;5812;48.864;9.190;2022-10-16T05:38:31;14.30;99.90
11511;DHT22;5812;48.864;9.190;2022-10-16T05:40:56;14.20;99.90
11511;DHT22;5812;48.864;9.190;2022-10-16T05:43:22;14.20;99.90
11511;DHT22;5812;48.864;9.190;2022-10-16T05:46:14;14.10;99.90
11511;DHT22;5812;48.864;9.190;2022-10-16T05:48:40;14.00;99.90
11511;DHT22;5812;48.864;9.190;2022-10-16T05:51:08;14.10;99.90
11511;DHT22;5812;48.864;9.190;2022-10-16T05:53:35;14.10;99.90
11511;DHT22;5812;48.864;9.190;2022-10-16T05:56:02;14.10;99.90
11511;DHT22;5812;48.864;9.190;2022-10-16T05:58:35;14.30;99.90
11511;DHT22;5812;48.864;9.190;2022-10-16T06:01:08;14.20;99.90
11511;DHT22;5812;48.864;9.190;2022-10-16T06:03:34;14.20;99.90
11511;DHT22;5812;48.864;9.190;2022-10-16T06:06:10;14.10;99.90
11511;DHT22;5812;48.864;9.190;2022-10-16T06:08:36;14.10;99.90
11511;DHT22;5812;48.864;9.190;2022-10-16T06:11:07;14.10;99.90
11511;DHT22;5812;48.864;9.190;2022-10-16T06:13:33;14.10;99.90
11511;DHT22;5812;48.864;9.190;2022-10-16T06:15:59;14.00;99.90
11511;DHT22;5812;48.864;9.190;2022-10-16T06:18:27;14.10;99.90
11511;DHT22;5812;48.864;9.190;2022-10-16T06:20:53;14.10;99.90
11511;DHT22;5812;48.864;9.190;2022-10-16T06:23:19;14.10;99.90
11511;DHT22;5812;48.864;9.190;2022-10-16T06:25:45;14.10;99.90
11511;DHT22;5812;48.864;9.190;2022-10-16T06:28:11;14.10;99.90
11511;DHT22;5812;48.864;9.190;2022-10-16T06:30:36;14.20;99.90
11511;DHT22;5812;48.864;9.190;2022-10-16T06:33:02;14.20;99.90
11511;DHT22;5812;48.864;9.190;2022-10-16T06:35:27;14.20;99.90
11511;DHT22;5812;48.864;9.190;2022-10-16T06:37:54;14.20;99.90
11511;DHT22;5812;48.864;9.190;2022-10-16T06:40:20;14.40;99.90
11511;DHT22;5812;48.864;9.190;2022-10-16T06:42:45;14.50;99.90
11511;DHT22;5812;48.864;9.190;2022-10-16T06:45:11;14.60;99.90
11511;DHT22;5812;48.864;9.190;2022-10-16T06:47:38;14.70;99.90
11511;DHT22;5812;48.864;9.190;2022-10-16T06:50:04;14.70;99.90
11511;DHT22;5812;48.864;9.190;2022-10-16T06:52:31;14.80;99.90
11511;DHT22;5812;48.864;9.190;2022-10-16T06:54:57;14.80;99.90
11511;DHT22;5812;48.864;9.190;2022-10-16T06:57:22;14.90;99.90
11511;DHT22;5812;48.864;9.190;2022-10-16T06:59:48;14.90;99.90
11511;DHT22;5812;48.864;9.190;2022-10-16T07:02:13;14.80;99.90
11511;DHT22;5812;48.864;9.190;2022-10-16T07:04:39;15.00;99.90
11511;DHT22;5812;48.864;9.190;2022-10-16T07:07:04;15.00;99.90
11511;DHT22;5812;48.864;9.190;2022-10-16T07:09:30;15.10;99.90
11511;DHT22;5812;48.864;9.190;2022-10-16T07:11:56;15.20;99.90
11511;DHT22;5812;48.864;9.190;2022-10-16T07:14:21;15.30;99.90
11511;DHT22;5812;48.864;9.190;2022-10-16T07:16:47;15.40;99.90
11511;DHT22;5812;48.864;9.190;2022-10-16T07:19:13;15.30;99.90
11511;DHT22;5812;48.864;9.190;2022-10-16T07:21:40;15.40;99.90
11511;DHT22;5812;48.864;9.190;2022-10-16T07:24:11;15.40;99.90
11511;DHT22;5812;48.864;9.190;2022-10-16T07:26:37;15.40;99.90
11511;DHT22;5812;48.864;9.190;2022-10-16T07:29:05;15.30;99.90
11511;DHT22;5812;48.864;9.190;2022-10-16T07:31:32;15.30;99.90
11511;DHT22;5812;48.864;9.190;2022-10-16T07:33:59;15.30;99.90
11511;DHT22;5812;48.864;9.190;2022-10-16T07:36:25;15.30;99.90
11511;DHT22;5812;48.864;9.190;2022-10-16T07:38:51;15.30;99.90
11511;DHT22;5812;48.864;9.190;2022-10-16T07:41:18;15.30;99.90
11511;DHT22;5812;48.864;9.190;2022-10-16T07:43:49;15.30;99.90
11511;DHT22;5812;48.864;9.190;2022-10-16T07:46:15;15.30;99.90
11511;DHT22;5812;48.864;9.190;2022-10-16T07:48:41;15.30;99.90
11511;DHT22;5812;48.864;9.190;2022-10-16T07:51:11;15.40;99.90
11511;DHT22;5812;48.864;9.190;2022-10-16T07:53:37;15.40;99.90
11511;DHT22;5812;48.864;9.190;2022-10-16T07:56:04;15.50;99.90
11511;DHT22;5812;48.864;9.190;2022-10-16T07:58:31;15.50;99.90
11511;DHT22;5812;48.864;9.190;2022-10-16T08:00:57;15.60;99.90
11511;DHT22;5812;48.864;9.190;2022-10-16T08:03:24;15.80;99.90
11511;DHT22;5812;48.864;9.190;2022-10-16T08:05:50;16.10;99.90
11511;DHT22;5812;48.864;9.190;2022-10-16T08:08:17;16.10;99.90
11511;DHT22;5812;48.864;9.190;2022-10-16T08:10:42;16.20;99.90
11511;DHT22;5812;48.864;9.190;2022-10-16T08:13:08;16.40;99.90
11511;DHT22;5812;48.864;9.190;2022-10-16T08:15:34;16.40;99.90
11511;DHT22;5812;48.864;9.190;2022-10-16T08:18:01;16.50;99.90
11511;DHT22;5812;48.864;9.190;2022-10-16T08:20:29;16.60;99.90
11511;DHT22;5812;48.864;9.190;2022-10-16T08:22:55;16.70;99.90
11511;DHT22;5812;48.864;9.190;2022-10-16T08:25:22;17.00;99.90
11511;DHT22;5812;48.864;9.190;2022-10-16T08:27:48;17.60;99.90
11511;DHT22;5812;48.864;9.190;2022-10-16T08:30:14;18.10;50.60
11511;DHT22;5812;48.864;9.190;2022-10-16T08:32:40;18.50;92.40
11511;DHT22;5812;48.864;9.190;2022-10-16T08:35:08;18.40;56.30
11511;DHT22;5812;48.864;9.190;2022-10-16T08:37:34;18.20;77.10
11511;DHT22;5812;48.864;9.190;2022-10-16T08:40:00;18.40;94.20
11511;DHT22;5812;48.864;9.190;2022-10-16T08:45:51;18.70;11.40
11511;DHT22;5812;48.864;9.190;2022-10-16T08:51:03;18.60;99.90
11511;DHT22;5812;48.864;9.190;2022-10-16T08:53:40;18.60;97.20
11511;DHT22;5812;48.864;9.190;2022-10-16T08:56:08;18.90;86.20
11511;DHT22;5812;48.864;9.190;2022-10-16T08:58:34;19.00;11.50
11511;DHT22;5812;48.864;9.190;2022-10-16T09:01:03;19.00;66.40
11511;DHT22;5812;48.864;9.190;2022-10-16T09:09:10;19.00;47.60
11511;DHT22;5812;48.864;9.190;2022-10-16T09:11:55;18.80;80.80
11511;DHT22;5812;48.864;9.190;2022-10-16T09:14:50;18.70;77.30
11511;DHT22;5812;48.864;9.190;2022-10-16T09:17:39;18.60;47.20
11511;DHT22;5812;48.864;9.190;2022-10-16T09:22:35;18.80;95.90
11511;DHT22;5812;48.864;9.190;2022-10-16T09:25:11;19.50;99.90
11511;DHT22;5812;48.864;9.190;2022-10-16T09:27:37;19.70;1.00
11511;DHT22;5812;48.864;9.190;2022-10-16T09:30:23;19.80;1.00
11511;DHT22;5812;48.864;9.190;2022-10-16T09:32:52;19.80;1.00
11511;DHT22;5812;48.864;9.190;2022-10-16T09:35:27;20.20;1.00
11511;DHT22;5812;48.864;9.190;2022-10-16T09:37:56;20.30;1.00
11511;DHT22;5812;48.864;9.190;2022-10-16T09:40:42;20.30;99.90
11511;DHT22;5812;48.864;9.190;2022-10-16T09:43:24;20.40;1.00
11511;DHT22;5812;48.864;9.190;2022-10-16T09:45:58;20.20;99.90
11511;DHT22;5812;48.864;9.190;2022-10-16T09:48:30;20.20;99.90
11511;DHT22;5812;48.864;9.190;2022-10-16T09:51:03;19.90;1.00
11511;DHT22;5812;48.864;9.190;2022-10-16T09:53:42;19.70;1.00
11511;DHT22;5812;48.864;9.190;2022-10-16T09:56:11;19.60;1.00
11511;DHT22;5812;48.864;9.190;2022-10-16T09:58:42;20.30;99.90
11511;DHT22;5812;48.864;9.190;2022-10-16T10:01:14;21.10;1.00
11511;DHT22;5812;48.864;9.190;2022-10-16T10:03:42;22.20;99.90
11511;DHT22;5812;48.864;9.190;2022-10-16T10:06:24;22.00;1.00
11511;DHT22;5812;48.864;9.190;2022-10-16T10:14:20;21.60;99.90
11511;DHT22;5812;48.864;9.190;2022-10-16T10:16:46;22.10;8.40
11511;DHT22;5812;48.864;9.190;2022-10-16T10:19:21;22.00;1.00
11511;DHT22;5812;48.864;9.190;2022-10-16T10:21:48;21.90;1.00
11511;DHT22;5812;48.864;9.190;2022-10-16T10:24:15;22.50;1.00
11511;DHT22;5812;48.864;9.190;2022-10-16T10:27:05;22.70;1.00
11511;DHT22;5812;48.864;9.190;2022-10-16T10:30:01;22.20;1.00
11511;DHT22;5812;48.864;9.190;2022-10-16T10:33:25;23.70;1.00
11511;DHT22;5812;48.864;9.190;2022-10-16T10:36:17;24.50;99.90
11511;DHT22;5812;48.864;9.190;2022-10-16T10:38:30;25.60;99.90
11511;DHT22;5812;48.864;9.190;2022-10-16T10:44:00;23.50;99.90
11511;DHT22;5812;48.864;9.190;2022-10-16T10:46:42;23.60;99.90
11511;DHT22;5812;48.864;9.190;2022-10-16T10:49:23;23.40;1.00
11511;DHT22;5812;48.864;9.190;2022-10-16T10:52:07;23.80;1.00
11511;DHT22;5812;48.864;9.190;2022-10-16T10:57:34;25.50;99.90
11511;DHT22;5812;48.864;9.190;2022-10-16T11:02:48;25.70;99.90
11511;DHT22;5812;48.864;9.190;2022-10-16T11:05:38;26.40;99.90
11511;DHT22;5812;48.864;9.190;2022-10-16T11:08:19;25.90;99.90
11511;DHT22;5812;48.864;9.190;2022-10-16T11:11:31;26.30;99.90
11511;DHT22;5812;48.864;9.190;2022-10-16T11:21:55;27.10;99.90
11511;DHT22;5812;48.864;9.190;2022-10-16T11:24:45;27.50;99.90
11511;DHT22;5812;48.864;9.190;2022-10-16T11:27:17;28.60;99.90
11511;DHT22;5812;48.864;9.190;2022-10-16T11:29:49;27.30;99.90
11511;DHT22;5812;48.864;9.190;2022-10-16T11:32:22;27.60;99.90
11511;DHT22;5812;48.864;9.190;2022-10-16T11:34:53;28.20;99.90
11511;DHT22;5812;48.864;9.190;2022-10-16T11:37:24;29.00;99.90
11511;DHT22;5812;48.864;9.190;2022-10-16T11:39:54;30.00;99.90
11511;DHT22;5812;48.864;9.190;2022-10-16T11:42:37;30.90;99.90
11511;DHT22;5812;48.864;9.190;2022-10-16T11:47:45;30.60;99.90
11511;DHT22;5812;48.864;9.190;2022-10-16T11:53:15;30.10;99.90
11511;DHT22;5812;48.864;9.190;2022-10-16T11:55:44;29.30;99.90
11511;DHT22;5812;48.864;9.190;2022-10-16T11:58:24;29.10;99.90
11511;DHT22;5812;48.864;9.190;2022-10-16T12:03:22;29.20;99.90
11511;DHT22;5812;48.864;9.190;2022-10-16T12:08:34;29.20;1.00
11511;DHT22;5812;48.864;9.190;2022-10-16T12:11:32;28.90;1.00
11511;DHT22;5812;48.864;9.190;2022-10-16T12:16:39;27.70;1.00
11511;DHT22;5812;48.864;9.190;2022-10-16T12:19:17;26.70;1.00
11511;DHT22;5812;48.864;9.190;2022-10-16T12:21:43;26.50;1.00
11511;DHT22;5812;48.864;9.190;2022-10-16T12:24:38;27.70;1.00
11511;DHT22;5812;48.864;9.190;2022-10-16T12:27:24;26.80;1.00
11511;DHT22;5812;48.864;9.190;2022-10-16T12:30:04;25.20;1.00
11511;DHT22;5812;48.864;9.190;2022-10-16T12:32:38;24.60;29.00
11511;DHT22;5812;48.864;9.190;2022-10-16T12:35:06;24.10;1.00
11511;DHT22;5812;48.864;9.190;2022-10-16T12:37:34;24.50;7.30
11511;DHT22;5812;48.864;9.190;2022-10-16T12:40:34;26.40;1.00
11511;DHT22;5812;48.864;9.190;2022-10-16T12:42:59;26.10;1.00
11511;DHT22;5812;48.864;9.190;2022-10-16T12:45:33;27.60;1.00
11511;DHT22;5812;48.864;9.190;2022-10-16T12:48:17;28.90;1.00
11511;DHT22;5812;48.864;9.190;2022-10-16T12:50:43;29.80;1.00
11511;DHT22;5812;48.864;9.190;2022-10-16T12:53:26;29.90;1.00
11511;DHT22;5812;48.864;9.190;2022-10-16T12:59:09;29.40;1.00
11511;DHT22;5812;48.864;9.190;2022-10-16T13:01:53;28.80;1.00
11511;DHT22;5812;48.864;9.190;2022-10-16T13:21:11;28.30;1.00
11511;DHT22;5812;48.864;9.190;2022-10-16T13:26:55;27.00;1.00
11511;DHT22;5812;48.864;9.190;2022-10-16T13:29:22;26.40;1.00
11511;DHT22;5812;48.864;9.190;2022-10-16T13:31:48;25.80;1.00
11511;DHT22;5812;48.864;9.190;2022-10-16T13:34:17;25.10;1.00
11511;DHT22;5812;48.864;9.190;2022-10-16T13:36:46;24.80;1.00
11511;DHT22;5812;48.864;9.190;2022-10-16T13:39:25;24.40;31.10
11511;DHT22;5812;48.864;9.190;2022-10-16T13:42:10;24.30;28.80
11511;DHT22;5812;48.864;9.190;2022-10-16T13:44:45;24.10;67.70
11511;DHT22;5812;48.864;9.190;2022-10-16T13:47:20;23.90;76.00
11511;DHT22;5812;48.864;9.190;2022-10-16T13:49:47;23.60;51.30
11511;DHT22;5812;48.864;9.190;2022-10-16T13:52:23;23.40;99.90
11511;DHT22;5812;48.864;9.190;2022-10-16T13:54:49;23.30;99.90
11511;DHT22;5812;48.864;9.190;2022-10-16T13:57:16;23.30;99.90
11511;DHT22;5812;48.864;9.190;2022-10-16T13:59:42;23.20;99.90
11511;DHT22;5812;48.864;9.190;2022-10-16T14:02:24;23.20;99.90
11511;DHT22;5812;48.864;9.190;2022-10-16T14:04:51;23.10;99.90
11511;DHT22;5812;48.864;9.190;2022-10-16T14:07:26;22.90;99.90
11511;DHT22;5812;48.864;9.190;2022-10-16T14:09:54;22.70;99.90
11511;DHT22;5812;48.864;9.190;2022-10-16T14:12:20;22.40;99.90
11511;DHT22;5812;48.864;9.190;2022-10-16T14:14:49;22.40;99.90
11511;DHT22;5812;48.864;9.190;2022-10-16T14:17:35;22.30;99.90
11511;DHT22;5812;48.864;9.190;2022-10-16T14:20:04;22.20;99.90
11511;DHT22;5812;48.864;9.190;2022-10-16T14:25:01;22.30;99.90
11511;DHT22;5812;48.864;9.190;2022-10-16T14:27:35;22.20;99.90
11511;DHT22;5812;48.864;9.190;2022-10-16T14:32:36;22.20;99.90
11511;DHT22;5812;48.864;9.190;2022-10-16T14:35:02;22.20;99.90
11511;DHT22;5812;48.864;9.190;2022-10-16T14:37:29;22.10;99.90
11511;DHT22;5812;48.864;9.190;2022-10-16T14:39:55;22.10;99.90
11511;DHT22;5812;48.864;9.190;2022-10-16T14:42:24;22.10;99.90
11511;DHT22;5812;48.864;9.190;2022-10-16T14:44:51;22.10;99.90
11511;DHT22;5812;48.864;9.190;2022-10-16T14:47:22;22.00;99.90
11511;DHT22;5812;48.864;9.190;2022-10-16T14:49:52;21.90;99.90
11511;DHT22;5812;48.864;9.190;2022-10-16T14:52:20;22.00;99.90
11511;DHT22;5812;48.864;9.190;2022-10-16T14:54:48;22.10;1.00
11511;DHT22;5812;48.864;9.190;2022-10-16T14:57:23;22.10;99.90
11511;DHT22;5812;48.864;9.190;2022-10-16T14:59:49;22.10;1.00
11511;DHT22;5812;48.864;9.190;2022-10-16T15:02:33;22.00;99.90
11511;DHT22;5812;48.864;9.190;2022-10-16T15:05:20;21.90;1.00
11511;DHT22;5812;48.864;9.190;2022-10-16T15:07:48;21.70;99.90
11511;DHT22;5812;48.864;9.190;2022-10-16T15:10:15;21.70;1.00
11511;DHT22;5812;48.864;9.190;2022-10-16T15:12:42;21.60;1.00
11511;DHT22;5812;48.864;9.190;2022-10-16T15:17:49;21.60;99.90
11511;DHT22;5812;48.864;9.190;2022-10-16T15:20:18;21.60;99.90
11511;DHT22;5812;48.864;9.190;2022-10-16T15:22:43;21.50;1.00
11511;DHT22;5812;48.864;9.190;2022-10-16T15:27:57;21.30;1.00
11511;DHT22;5812;48.864;9.190;2022-10-16T15:30:22;21.10;1.00
11511;DHT22;5812;48.864;9.190;2022-10-16T15:32:48;21.10;25.10
11511;DHT22;5812;48.864;9.190;2022-10-16T15:35:13;21.10;99.90
11511;DHT22;5812;48.864;9.190;2022-10-16T15:37:39;21.10;99.90
11511;DHT22;5812;48.864;9.190;2022-10-16T15:40:05;21.00;99.90
11511;DHT22;5812;48.864;9.190;2022-10-16T15:42:31;21.10;1.00
11511;DHT22;5812;48.864;9.190;2022-10-16T15:44:56;21.00;1.00
11511;DHT22;5812;48.864;9.190;2022-10-16T15:47:22;21.00;1.00
11511;DHT22;5812;48.864;9.190;2022-10-16T15:49:47;20.90;1.00
11511;DHT22;5812;48.864;9.190;2022-10-16T15:52:13;20.80;99.90
11511;DHT22;5812;48.864;9.190;2022-10-16T15:54:38;20.80;99.90
11511;DHT22;5812;48.864;9.190;2022-10-16T15:57:04;20.60;99.90
11511;DHT22;5812;48.864;9.190;2022-10-16T15:59:30;20.60;96.10
11511;DHT22;5812;48.864;9.190;2022-10-16T16:01:55;20.60;99.90
11511;DHT22;5812;48.864;9.190;2022-10-16T16:04:21;20.50;99.90
11511;DHT22;5812;48.864;9.190;2022-10-16T16:06:46;20.50;99.90
11511;DHT22;5812;48.864;9.190;2022-10-16T16:09:13;20.50;99.90
11511;DHT22;5812;48.864;9.190;2022-10-16T16:11:39;20.50;99.90
11511;DHT22;5812;48.864;9.190;2022-10-16T16:14:12;20.30;99.90
11511;DHT22;5812;48.864;9.190;2022-10-16T16:16:38;20.20;99.90
11511;DHT22;5812;48.864;9.190;2022-10-16T16:19:07;20.10;99.90
11511;DHT22;5812;48.864;9.190;2022-10-16T16:21:33;20.00;1.00
11511;DHT22;5812;48.864;9.190;2022-10-16T16:23:59;19.80;1.00
11511;DHT22;5812;48.864;9.190;2022-10-16T16:26:27;19.70;1.00
11511;DHT22;5812;48.864;9.190;2022-10-16T16:28:56;19.50;1.00
11511;DHT22;5812;48.864;9.190;2022-10-16T16:31:26;19.40;1.00
11511;DHT22;5812;48.864;9.190;2022-10-16T16:33:53;19.30;1.00
11511;DHT22;5812;48.864;9.190;2022-10-16T16:36:19;19.30;1.00
11511;DHT22;5812;48.864;9.190;2022-10-16T16:38:45;19.10;19.50
11511;DHT22;5812;48.864;9.190;2022-10-16T16:43:38;19.00;24.70
11511;DHT22;5812;48.864;9.190;2022-10-16T16:46:03;19.00;1.00
11511;DHT22;5812;48.864;9.190;2022-10-16T16:48:29;19.00;19.50
11511;DHT22;5812;48.864;9.190;2022-10-16T16:50:54;18.90;24.60
11511;DHT22;5812;48.864;9.190;2022-10-16T16:53:21;18.90;64.90
11511;DHT22;5812;48.864;9.190;2022-10-16T16:55:47;18.80;45.60
11511;DHT22;5812;48.864;9.190;2022-10-16T16:58:13;18.80;66.10
11511;DHT22;5812;48.864;9.190;2022-10-16T17:00:45;18.70;73.20
11511;DHT22;5812;48.864;9.190;2022-10-16T17:03:11;18.70;72.70
11511;DHT22;5812;48.864;9.190;2022-10-16T17:05:36;18.50;99.90
11511;DHT22;5812;48.864;9.190;2022-10-16T17:08:02;18.20;99.90
11511;DHT22;5812;48.864;9.190;2022-10-16T17:10:31;18.10;99.90
11511;DHT22;5812;48.864;9.190;2022-10-16T17:12:56;18.00;99.90
11511;DHT22;5812;48.864;9.190;2022-10-16T17:15:22;17.90;99.90
11511;DHT22;5812;48.864;9.190;2022-10-16T17:17:47;17.80;99.90
11511;DHT22;5812;48.864;9.190;2022-10-16T17:20:14;17.90;99.90
11511;DHT22;5812;48.864;9.190;2022-10-16T17:22:39;17.70;99.90
11511;DHT22;5812;48.864;9.190;2022-10-16T17:25:06;17.60;99.90
11511;DHT22;5812;48.864;9.190;2022-10-16T17:27:33;17.60;99.90
11511;DHT22;5812;48.864;9.190;2022-10-16T17:30:00;17.50;99.90
11511;DHT22;5812;48.864;9.190;2022-10-16T17:32:25;17.50;99.90
11511;DHT22;5812;48.864;9.190;2022-10-16T17:34:51;17.60;99.90
11511;DHT22;5812;48.864;9.190;2022-10-16T17:37:17;17.40;99.90
11511;DHT22;5812;48.864;9.190;2022-10-16T17:39:42;17.30;99.90
11511;DHT22;5812;48.864;9.190;2022-10-16T17:42:08;17.30;99.90
11511;DHT22;5812;48.864;9.190;2022-10-16T17:44:33;17.00;99.90